createdAt,value
2022-09-17T00:01:26.344Z,94.62
2022-09-17T00:03:56.528Z,95.86
2022-09-17T00:06:25.460Z,96.53
2022-09-17T00:08:53.896Z,93.71
2022-09-17T00:11:29.733Z,92.67
2022-09-17T00:14:00.553Z,92.77
2022-09-17T00:16:34.531Z,92.26
2022-09-17T00:19:03.246Z,92.17
2022-09-17T00:21:30.464Z,92.25
2022-09-17T00:24:04.523Z,91.34
2022-09-17T00:26:33.751Z,91.48
2022-09-17T00:29:01.663Z,90.98
2022-09-17T00:31:32.985Z,90.70
2022-09-17T00:34:01.653Z,90.21
2022-09-17T00:36:29.309Z,90.93
2022-09-17T00:38:59.693Z,90.85
2022-09-17T00:41:31.264Z,90.48
2022-09-17T00:44:03.082Z,89.37
2022-09-17T00:46:42.753Z,89.18
2022-09-17T00:49:21.975Z,89.21
2022-09-17T00:52:10.865Z,88.79
2022-09-17T00:54:44.217Z,88.91
2022-09-17T00:57:12.058Z,88.28
2022-09-17T00:59:39.163Z,88.13
2022-09-17T01:02:06.575Z,88.15
2022-09-17T01:04:33.510Z,87.51
2022-09-17T01:07:14.602Z,87.65
2022-09-17T01:10:06.125Z,87.57
2022-09-17T01:13:06.293Z,87.73
2022-09-17T01:16:03.623Z,88.27
2022-09-17T01:18:56.823Z,87.70
2022-09-17T01:21:49.870Z,87.54
2022-09-17T01:24:41.425Z,87.75
2022-09-17T01:27:53.089Z,87.46
2022-09-17T01:30:51.885Z,87.78
2022-09-17T01:33:33.666Z,87.88
2022-09-17T01:36:48.345Z,87.82
2022-09-17T01:39:34.535Z,87.09
2022-09-17T01:42:10.286Z,87.31
2022-09-17T01:45:10.774Z,87.52
2022-09-17T01:47:52.345Z,87.82
2022-09-17T01:50:30.961Z,88.06
2022-09-17T01:52:59.991Z,87.60
2022-09-17T01:55:35.800Z,87.85
2022-09-17T01:58:39.623Z,88.03
2022-09-17T02:01:12.276Z,88.47
2022-09-17T02:04:03.756Z,88.41
2022-09-17T02:06:37.966Z,88.61
2022-09-17T02:09:50.994Z,88.97
2022-09-17T02:12:28.405Z,88.92
2022-09-17T02:15:01.190Z,89.07
2022-09-17T02:17:37.078Z,89.09
2022-09-17T02:20:06.667Z,89.28
2022-09-17T02:22:48.289Z,89.87
2022-09-17T02:25:44.138Z,90.21
2022-09-17T02:28:51.351Z,90.35
2022-09-17T02:31:18.561Z,90.55
2022-09-17T02:33:50.949Z,90.75
2022-09-17T02:36:19.294Z,90.86
2022-09-17T02:38:46.599Z,90.82
2022-09-17T02:41:21.820Z,90.20
2022-09-17T02:44:13.030Z,90.16
2022-09-17T02:47:12.037Z,90.49
2022-09-17T02:50:28.461Z,90.21
2022-09-17T02:53:23.815Z,90.60
2022-09-17T02:56:23.639Z,90.47
2022-09-17T02:59:24.101Z,90.48
2022-09-17T03:02:00.699Z,90.79
2022-09-17T03:04:30.031Z,90.67
2022-09-17T03:06:59.505Z,90.50
2022-09-17T03:09:26.965Z,90.47
2022-09-17T03:11:53.922Z,90.70
2022-09-17T03:14:20.721Z,91.46
2022-09-17T03:16:48.221Z,90.90
2022-09-17T03:19:15.435Z,90.02
2022-09-17T03:21:42.311Z,89.67
2022-09-17T03:24:10.860Z,89.82
2022-09-17T03:26:38.730Z,90.10
2022-09-17T03:29:05.920Z,89.34
2022-09-17T03:31:32.798Z,89.45
2022-09-17T03:33:59.739Z,89.83
2022-09-17T03:36:26.586Z,90.34
2022-09-17T03:38:57.770Z,89.72
2022-09-17T03:41:25.754Z,89.74
2022-09-17T03:43:55.759Z,89.34
2022-09-17T03:46:22.642Z,89.51
2022-09-17T03:48:49.509Z,89.87
2022-09-17T03:51:16.505Z,89.66
2022-09-17T03:53:43.373Z,89.38
2022-09-17T03:56:10.410Z,89.18
2022-09-17T03:58:37.320Z,89.61
2022-09-17T04:01:04.849Z,89.29
2022-09-17T04:03:32.570Z,90.05
2022-09-17T04:06:00.002Z,90.08
2022-09-17T04:08:27.126Z,89.87
2022-09-17T04:10:54.224Z,89.88
2022-09-17T04:13:21.466Z,89.16
2022-09-17T04:15:49.397Z,89.09
2022-09-17T04:18:16.788Z,89.32
2022-09-17T04:20:43.850Z,88.74
2022-09-17T04:23:14.132Z,88.61
2022-09-17T04:25:40.944Z,88.72
2022-09-17T04:28:07.950Z,88.75
2022-09-17T04:30:35.087Z,88.61
2022-09-17T04:33:02.253Z,88.64
2022-09-17T04:35:29.057Z,88.35
2022-09-17T04:37:58.118Z,88.29
2022-09-17T04:40:26.968Z,88.51
2022-09-17T04:42:56.051Z,88.85
2022-09-17T04:45:23.527Z,89.05
2022-09-17T04:47:53.430Z,88.99
2022-09-17T04:50:21.455Z,88.66
2022-09-17T04:52:49.060Z,88.97
2022-09-17T04:55:16.819Z,88.73
2022-09-17T04:57:49.178Z,88.13
2022-09-17T05:00:18.066Z,88.11
2022-09-17T05:02:49.166Z,88.38
2022-09-17T05:05:17.783Z,88.71
2022-09-17T05:07:45.357Z,88.65
2022-09-17T05:10:15.160Z,88.29
2022-09-17T05:12:48.214Z,88.86
2022-09-17T05:15:15.089Z,89.13
2022-09-17T05:17:42.078Z,89.11
2022-09-17T05:20:09.867Z,89.92
2022-09-17T05:22:51.596Z,89.06
2022-09-17T05:25:24.448Z,89.00
2022-09-17T05:27:53.505Z,88.69
2022-09-17T05:30:21.138Z,88.59
2022-09-17T05:32:48.657Z,88.64
2022-09-17T05:35:15.842Z,87.99
2022-09-17T05:37:43.018Z,87.37
2022-09-17T05:40:10.633Z,87.10
2022-09-17T05:42:38.786Z,86.86
2022-09-17T05:45:08.208Z,86.97
2022-09-17T05:47:35.365Z,87.56
2022-09-17T05:50:02.390Z,87.57
2022-09-17T05:52:29.928Z,87.16
2022-09-17T05:54:57.181Z,86.14
2022-09-17T05:57:25.020Z,85.72
2022-09-17T05:59:51.965Z,85.60
2022-09-17T06:02:18.955Z,85.12
2022-09-17T06:04:46.642Z,84.99
2022-09-17T06:07:13.605Z,84.74
2022-09-17T06:09:43.187Z,84.98
2022-09-17T06:12:09.931Z,84.29
2022-09-17T06:14:36.799Z,84.39
2022-09-17T06:17:03.729Z,84.74
2022-09-17T06:19:30.615Z,87.44
2022-09-17T06:21:57.502Z,87.91
2022-09-17T06:24:24.403Z,90.75
2022-09-17T06:26:52.320Z,92.89
2022-09-17T06:29:20.544Z,93.34
2022-09-17T06:31:49.177Z,94.41
2022-09-17T06:34:17.155Z,95.07
2022-09-17T06:36:44.226Z,94.98
2022-09-17T06:39:11.755Z,97.30
2022-09-17T06:41:38.961Z,95.84
2022-09-17T06:44:05.784Z,96.34
2022-09-17T06:46:36.947Z,96.92
2022-09-17T06:49:03.941Z,96.40
2022-09-17T06:51:31.329Z,98.61
2022-09-17T06:53:58.299Z,99.16
2022-09-17T06:56:26.518Z,100.00
2022-09-17T06:58:54.467Z,100.00
2022-09-17T07:01:21.343Z,100.00
2022-09-17T07:03:49.683Z,100.00
2022-09-17T07:06:16.470Z,100.00
2022-09-17T07:08:43.774Z,100.00
2022-09-17T07:11:10.838Z,100.00
2022-09-17T07:13:37.652Z,100.00
2022-09-17T07:16:06.402Z,100.00
2022-09-17T07:18:33.993Z,100.00
2022-09-17T07:21:04.145Z,100.00
2022-09-17T07:23:34.732Z,100.00
2022-09-17T07:26:09.006Z,100.00
2022-09-17T07:28:39.201Z,100.00
2022-09-17T07:31:08.657Z,100.00
2022-09-17T07:33:38.356Z,100.00
2022-09-17T07:36:11.371Z,100.00
2022-09-17T07:38:38.760Z,100.00
2022-09-17T07:41:12.957Z,100.00
2022-09-17T07:43:41.415Z,100.00
2022-09-17T07:46:17.932Z,98.65
2022-09-17T07:48:47.404Z,98.13
2022-09-17T07:51:30.702Z,97.23
2022-09-17T07:53:59.516Z,97.26
2022-09-17T07:56:27.947Z,96.21
2022-09-17T07:58:55.446Z,97.86
2022-09-17T08:01:23.033Z,96.81
2022-09-17T08:03:54.654Z,95.58
2022-09-17T08:06:30.918Z,97.20
2022-09-17T08:09:00.161Z,92.63
2022-09-17T08:14:17.381Z,88.23
2022-09-17T08:16:46.409Z,85.62
2022-09-17T08:19:13.397Z,85.93
2022-09-17T08:21:41.144Z,84.45
2022-09-17T08:24:08.644Z,86.11
2022-09-17T08:26:36.369Z,84.75
2022-09-17T08:29:03.325Z,84.59
2022-09-17T08:31:30.608Z,84.25
2022-09-17T08:33:57.929Z,85.85
2022-09-17T08:36:26.210Z,84.13
2022-09-17T08:38:54.933Z,82.83
2022-09-17T08:41:40.439Z,84.15
2022-09-17T08:44:26.337Z,83.44
2022-09-17T08:47:13.164Z,83.25
2022-09-17T08:49:56.032Z,83.00
2022-09-17T08:53:21.238Z,82.76
2022-09-17T08:56:13.297Z,84.09
2022-09-17T08:59:14.488Z,83.31
2022-09-17T09:01:59.222Z,82.95
2022-09-17T09:04:59.051Z,83.07
2022-09-17T09:07:42.410Z,85.50
2022-09-17T09:10:37.919Z,83.48
2022-09-17T09:13:05.237Z,82.61
2022-09-17T09:15:45.642Z,81.48
2022-09-17T09:18:22.083Z,83.23
2022-09-17T09:20:55.678Z,84.04
2022-09-17T09:23:57.393Z,83.46
2022-09-17T09:26:48.120Z,80.93
2022-09-17T09:30:02.022Z,80.18
2022-09-17T09:33:14.526Z,80.06
2022-09-17T09:35:44.760Z,75.36
2022-09-17T09:38:35.757Z,72.13
2022-09-17T09:41:15.612Z,70.92
2022-09-17T09:44:06.063Z,66.44
2022-09-17T09:47:13.361Z,64.69
2022-09-17T09:50:18.839Z,64.35
2022-09-17T09:53:24.120Z,64.49
2022-09-17T09:56:22.135Z,63.61
2022-09-17T09:58:49.181Z,64.04
2022-09-17T10:01:23.059Z,64.30
2022-09-17T10:03:54.050Z,65.82
2022-09-17T10:06:21.403Z,67.01
2022-09-17T10:08:57.318Z,67.88
2022-09-17T10:11:34.166Z,67.40
2022-09-17T10:14:29.269Z,65.36
2022-09-17T10:17:22.128Z,65.83
2022-09-17T10:20:12.000Z,64.69
2022-09-17T10:22:46.896Z,64.07
2022-09-17T10:25:35.059Z,64.83
2022-09-17T10:28:21.120Z,65.18
2022-09-17T10:31:10.242Z,65.99
2022-09-17T10:34:01.023Z,66.42
2022-09-17T10:36:44.428Z,65.84
2022-09-17T10:39:27.536Z,65.27
2022-09-17T10:41:59.811Z,62.54
2022-09-17T10:44:36.923Z,60.08
2022-09-17T10:47:33.434Z,57.78
2022-09-17T10:50:18.761Z,57.62
2022-09-17T10:52:54.221Z,56.11
2022-09-17T10:55:51.017Z,55.55
2022-09-17T10:58:42.267Z,57.00
2022-09-17T11:01:48.330Z,56.37
2022-09-17T11:04:27.516Z,55.59
2022-09-17T11:07:49.381Z,55.39
2022-09-17T11:10:46.238Z,52.90
2022-09-17T11:13:43.067Z,51.53
2022-09-17T11:16:45.376Z,48.66
2022-09-17T11:20:07.224Z,45.82
2022-09-17T11:23:07.185Z,45.55
2022-09-17T11:26:00.883Z,45.23
2022-09-17T11:28:46.917Z,47.01
2022-09-17T11:31:51.268Z,51.63
2022-09-17T11:34:36.215Z,60.22
2022-09-17T11:37:24.294Z,62.79
2022-09-17T11:40:00.649Z,60.12
2022-09-17T11:42:57.821Z,56.53
2022-09-17T11:45:39.946Z,57.32
2022-09-17T11:48:18.477Z,58.16
2022-09-17T11:51:20.608Z,56.62
2022-09-17T11:54:05.158Z,59.69
2022-09-17T11:57:07.689Z,64.51
2022-09-17T12:00:17.962Z,67.28
2022-09-17T12:03:07.464Z,71.76
2022-09-17T12:05:51.415Z,74.54
2022-09-17T12:08:48.005Z,73.78
2022-09-17T12:11:26.848Z,77.53
2022-09-17T12:14:09.626Z,80.66
2022-09-17T12:16:43.559Z,86.26
2022-09-17T12:19:35.928Z,87.02
2022-09-17T12:22:17.959Z,88.51
2022-09-17T12:24:45.438Z,90.37
2022-09-17T12:27:54.386Z,88.73
2022-09-17T12:30:38.371Z,92.64
2022-09-17T12:33:23.273Z,94.62
2022-09-17T12:36:19.654Z,95.51
2022-09-17T12:39:11.474Z,98.13
2022-09-17T12:42:12.974Z,97.84
2022-09-17T12:45:19.581Z,95.80
2022-09-17T12:48:10.972Z,88.22
2022-09-17T12:51:07.189Z,92.13
2022-09-17T12:53:52.858Z,92.37
2022-09-17T12:56:32.775Z,88.99
2022-09-17T12:59:05.447Z,85.69
2022-09-17T13:01:51.765Z,85.31
2022-09-17T13:05:00.463Z,85.85
2022-09-17T13:08:20.251Z,87.32
2022-09-17T13:11:24.177Z,82.54
2022-09-17T13:14:09.235Z,80.35
2022-09-17T13:17:07.525Z,77.20
2022-09-17T13:20:14.605Z,81.01
2022-09-17T13:22:49.641Z,80.41
2022-09-17T13:25:20.023Z,78.53
2022-09-17T13:27:50.009Z,77.92
2022-09-17T13:30:19.157Z,76.10
2022-09-17T13:32:51.509Z,70.59
2022-09-17T13:35:18.263Z,70.82
2022-09-17T13:37:59.578Z,69.97
2022-09-17T13:40:34.267Z,65.65
2022-09-17T13:43:04.321Z,62.16
2022-09-17T13:45:33.808Z,59.89
2022-09-17T13:48:37.084Z,59.04
2022-09-17T13:51:32.366Z,58.15
2022-09-17T13:54:07.599Z,56.79
2022-09-17T13:56:41.333Z,55.81
2022-09-17T13:59:18.084Z,56.09
2022-09-17T14:02:31.011Z,54.81
2022-09-17T14:05:33.912Z,57.78
2022-09-17T14:08:46.743Z,61.38
2022-09-17T14:11:22.891Z,65.97
2022-09-17T14:14:05.293Z,65.91
2022-09-17T14:16:46.205Z,61.65
2022-09-17T14:19:16.109Z,59.11
2022-09-17T14:22:35.913Z,59.36
2022-09-17T14:25:02.870Z,59.34
2022-09-17T14:27:57.030Z,59.35
2022-09-17T14:30:31.914Z,59.69
2022-09-17T14:33:10.238Z,57.83
2022-09-17T14:35:42.258Z,57.48
2022-09-17T14:38:27.285Z,59.09
2022-09-17T14:41:17.860Z,61.68
2022-09-17T14:43:57.039Z,65.02
2022-09-17T14:46:40.606Z,65.88
2022-09-17T14:49:35.925Z,66.84
2022-09-17T14:52:30.405Z,66.55
2022-09-17T14:55:31.752Z,67.46
2022-09-17T14:58:04.899Z,68.54
2022-09-17T15:00:38.760Z,70.94
2022-09-17T15:03:06.923Z,71.78
2022-09-17T15:05:43.286Z,72.17
2022-09-17T15:08:10.070Z,73.20
2022-09-17T15:10:59.955Z,71.35
2022-09-17T15:13:35.376Z,70.96
2022-09-17T15:16:25.719Z,70.51
2022-09-17T15:18:54.255Z,71.04
2022-09-17T15:21:50.638Z,71.31
2022-09-17T15:24:44.598Z,72.20
2022-09-17T15:27:38.235Z,72.96
2022-09-17T15:30:20.761Z,71.41
2022-09-17T15:33:01.323Z,71.37
2022-09-17T15:35:32.453Z,68.82
2022-09-17T15:40:49.725Z,69.28
2022-09-17T15:43:30.674Z,70.94
2022-09-17T15:46:01.441Z,72.50
2022-09-17T15:48:28.139Z,72.91
2022-09-17T15:50:58.765Z,73.76
2022-09-17T15:53:35.220Z,73.74
2022-09-17T15:56:08.693Z,73.48
2022-09-17T15:59:01.599Z,72.50
2022-09-17T16:01:53.573Z,72.79
2022-09-17T16:04:35.002Z,72.71
2022-09-17T16:07:27.952Z,72.99
2022-09-17T16:09:56.547Z,72.41
2022-09-17T16:12:26.937Z,71.30
2022-09-17T16:14:57.168Z,71.31
2022-09-17T16:17:35.701Z,71.62
2022-09-17T16:20:16.363Z,72.03
2022-09-17T16:22:44.722Z,72.43
2022-09-17T16:25:12.022Z,72.33
2022-09-17T16:28:08.465Z,74.12
2022-09-17T16:30:35.860Z,75.68
2022-09-17T16:33:04.076Z,77.34
2022-09-17T16:35:30.952Z,79.30
2022-09-17T16:37:57.885Z,83.19
2022-09-17T16:40:28.195Z,85.75
2022-09-17T16:42:55.812Z,89.60
2022-09-17T16:45:26.776Z,92.45
2022-09-17T16:47:56.411Z,92.32
2022-09-17T16:50:25.167Z,97.38
2022-09-17T16:52:53.447Z,98.43
2022-09-17T16:55:21.863Z,98.56
2022-09-17T16:57:48.669Z,100.00
2022-09-17T17:00:20.226Z,100.00
2022-09-17T17:02:57.514Z,100.00
2022-09-17T17:05:26.474Z,100.00
2022-09-17T17:07:55.222Z,99.61
2022-09-17T17:10:27.690Z,100.00
2022-09-17T17:12:54.647Z,100.00
2022-09-17T17:15:22.429Z,100.00
2022-09-17T17:17:49.906Z,100.00
2022-09-17T17:20:17.177Z,100.00
2022-09-17T17:22:45.072Z,100.00
2022-09-17T17:25:14.302Z,100.00
2022-09-17T17:27:41.938Z,100.00
2022-09-17T17:30:10.291Z,100.00
2022-09-17T17:32:37.543Z,100.00
2022-09-17T17:35:06.468Z,100.00
2022-09-17T17:37:33.341Z,100.00
2022-09-17T17:40:01.920Z,100.00
2022-09-17T17:42:35.629Z,100.00
2022-09-17T17:45:02.892Z,100.00
2022-09-17T17:47:29.901Z,100.00
2022-09-17T17:49:56.751Z,100.00
2022-09-17T17:52:23.630Z,100.00
2022-09-17T17:54:50.871Z,100.00
2022-09-17T17:57:17.900Z,100.00
2022-09-17T17:59:44.830Z,100.00
2022-09-17T18:02:12.189Z,100.00
2022-09-17T18:04:39.114Z,100.00
2022-09-17T18:07:06.185Z,100.00
2022-09-17T18:09:33.422Z,100.00
2022-09-17T18:12:00.297Z,100.00
2022-09-17T18:14:27.392Z,100.00
2022-09-17T18:16:54.395Z,100.00
2022-09-17T18:19:21.236Z,100.00
2022-09-17T18:21:48.061Z,100.00
2022-09-17T18:24:14.965Z,100.00
2022-09-17T18:26:41.861Z,100.00
2022-09-17T18:29:09.308Z,100.00
2022-09-17T18:31:37.723Z,100.00
2022-09-17T18:34:10.733Z,100.00
2022-09-17T18:36:39.466Z,100.00
2022-09-17T18:39:44.883Z,100.00
2022-09-17T18:41:58.005Z,100.00
2022-09-17T18:44:25.301Z,100.00
2022-09-17T18:46:52.136Z,100.00
2022-09-17T18:49:18.956Z,86.95
2022-09-17T18:51:46.144Z,90.28
2022-09-17T18:54:14.750Z,90.43
2022-09-17T18:56:41.770Z,93.01
2022-09-17T18:59:12.190Z,95.58
2022-09-17T19:01:39.248Z,95.82
2022-09-17T19:04:07.622Z,97.04
2022-09-17T19:06:35.044Z,97.82
2022-09-17T19:09:04.691Z,96.27
2022-09-17T19:11:31.594Z,94.82
2022-09-17T19:13:58.591Z,95.49
2022-09-17T19:16:25.879Z,92.96
2022-09-17T19:18:52.905Z,93.01
2022-09-17T19:21:21.620Z,94.77
2022-09-17T19:23:51.423Z,97.99
2022-09-17T19:26:22.387Z,95.76
2022-09-17T19:28:58.036Z,94.49
2022-09-17T19:31:26.662Z,98.40
2022-09-17T19:33:54.123Z,97.60
2022-09-17T19:36:21.335Z,96.25
2022-09-17T19:38:51.138Z,96.91
2022-09-17T19:41:23.133Z,97.77
2022-09-17T19:43:54.945Z,98.45
2022-09-17T19:46:25.227Z,98.44
2022-09-17T19:48:55.862Z,99.94
2022-09-17T19:51:25.935Z,99.92
2022-09-17T19:53:53.262Z,100.00
2022-09-17T19:56:23.813Z,100.00
2022-09-17T19:58:51.233Z,100.00
2022-09-17T20:01:19.364Z,100.00
2022-09-17T20:03:48.161Z,100.00
2022-09-17T20:06:18.234Z,100.00
2022-09-17T20:08:57.461Z,100.00
2022-09-17T20:11:25.508Z,100.00
2022-09-17T20:14:06.381Z,100.00
2022-09-17T20:16:36.057Z,100.00
2022-09-17T20:19:03.735Z,100.00
2022-09-17T20:21:31.044Z,100.00
2022-09-17T20:23:59.012Z,100.00
2022-09-17T20:26:27.297Z,100.00
2022-09-17T20:28:55.591Z,100.00
2022-09-17T20:31:26.203Z,100.00
2022-09-17T20:33:56.309Z,100.00
2022-09-17T20:36:26.866Z,100.00
2022-09-17T20:39:11.588Z,100.00
2022-09-17T20:41:41.429Z,100.00
2022-09-17T20:44:08.293Z,100.00
2022-09-17T20:46:35.372Z,100.00
2022-09-17T20:49:02.306Z,100.00
2022-09-17T20:51:32.589Z,100.00
2022-09-17T20:54:00.949Z,100.00
2022-09-17T20:56:31.752Z,100.00
2022-09-17T20:59:09.329Z,100.00
2022-09-17T21:01:37.670Z,100.00
2022-09-17T21:04:07.468Z,100.00
2022-09-17T21:06:38.690Z,100.00
2022-09-17T21:09:07.414Z,100.00
2022-09-17T21:11:35.069Z,100.00
2022-09-17T21:14:02.794Z,100.00
2022-09-17T21:16:31.083Z,100.00
2022-09-17T21:19:02.341Z,100.00
2022-09-17T21:21:30.301Z,100.00
2022-09-17T21:24:01.417Z,100.00
2022-09-17T21:26:29.154Z,100.00
2022-09-17T21:28:57.338Z,100.00
2022-09-17T21:31:32.097Z,100.00
2022-09-17T21:34:02.957Z,100.00
2022-09-17T21:36:34.001Z,100.00
2022-09-17T21:39:16.760Z,100.00
2022-09-17T21:41:45.536Z,100.00
2022-09-17T21:44:13.494Z,100.00
2022-09-17T21:46:42.678Z,100.00
2022-09-17T21:49:10.197Z,100.00
2022-09-17T21:51:42.245Z,100.00
2022-09-17T21:54:16.678Z,100.00
2022-09-17T21:56:45.142Z,100.00
2022-09-17T21:59:14.444Z,100.00
2022-09-17T22:01:48.498Z,100.00
2022-09-17T22:04:20.049Z,100.00
2022-09-17T22:06:49.410Z,100.00
2022-09-17T22:09:22.849Z,100.00
2022-09-17T22:11:51.506Z,100.00
2022-09-17T22:14:24.613Z,100.00
2022-09-17T22:16:54.318Z,100.00
2022-09-17T22:19:23.863Z,100.00
2022-09-17T22:21:56.769Z,100.00
2022-09-17T22:24:24.678Z,100.00
2022-09-17T22:26:57.907Z,100.00
2022-09-17T22:29:30.152Z,100.00
2022-09-17T22:31:57.381Z,100.00
2022-09-17T22:34:25.779Z,100.00
2022-09-17T22:36:52.762Z,100.00
2022-09-17T22:39:22.963Z,100.00
2022-09-17T22:41:50.475Z,100.00
2022-09-17T22:44:20.090Z,100.00
2022-09-17T22:46:50.929Z,100.00
2022-09-17T22:49:19.246Z,100.00
2022-09-17T22:51:47.280Z,100.00
2022-09-17T22:54:16.813Z,100.00
2022-09-17T22:56:44.472Z,100.00
2022-09-17T22:59:11.996Z,100.00
2022-09-17T23:01:40.604Z,100.00
2022-09-17T23:04:08.081Z,100.00
2022-09-17T23:06:38.495Z,100.00
2022-09-17T23:09:06.711Z,100.00
2022-09-17T23:11:38.810Z,100.00
2022-09-17T23:14:11.917Z,100.00
2022-09-17T23:16:47.918Z,99.98
2022-09-17T23:19:19.822Z,99.70
2022-09-17T23:21:47.428Z,99.28
2022-09-17T23:24:20.716Z,99.57
2022-09-17T23:26:49.259Z,98.79
2022-09-17T23:29:16.623Z,98.34
2022-09-17T23:31:43.494Z,95.50
2022-09-17T23:34:10.762Z,97.66
2022-09-17T23:36:39.977Z,98.00
2022-09-17T23:39:09.089Z,98.03
2022-09-17T23:41:40.516Z,97.98
2022-09-17T23:44:14.957Z,97.32
2022-09-17T23:46:44.699Z,98.11
2022-09-17T23:49:13.864Z,97.64
2022-09-17T23:51:41.229Z,98.22
2022-09-17T23:54:10.569Z,97.39
2022-09-17T23:56:37.501Z,96.44
2022-09-17T23:59:04.915Z,95.20
